sensor_id;sensor_type;location;lat;lon;timestamp;temperature;humidity
19000;DHT22;9633;50.980;13.850;2023-04-12T00:00:53;0.40;99.90
19000;DHT22;9633;50.980;13.850;2023-04-12T00:02:26;0.30;99.90
19000;DHT22;9633;50.980;13.850;2023-04-12T00:04:00;0.30;99.90
19000;DHT22;9633;50.980;13.850;2023-04-12T00:05:36;0.30;99.90
19000;DHT22;9633;50.980;13.850;2023-04-12T00:07:09;0.30;99.90
19000;DHT22;9633;50.980;13.850;2023-04-12T00:08:44;0.30;99.90
19000;DHT22;9633;50.980;13.850;2023-04-12T00:10:17;0.30;99.90
19000;DHT22;9633;50.980;13.850;2023-04-12T00:11:51;0.40;99.90
19000;DHT22;9633;50.980;13.850;2023-04-12T00:13:23;0.40;99.90
19000;DHT22;9633;50.980;13.850;2023-04-12T00:14:56;0.40;99.90
19000;DHT22;9633;50.980;13.850;2023-04-12T00:16:29;0.40;99.90
19000;DHT22;9633;50.980;13.850;2023-04-12T00:18:03;0.50;99.90
19000;DHT22;9633;50.980;13.850;2023-04-12T00:19:36;0.40;99.90
19000;DHT22;9633;50.980;13.850;2023-04-12T00:21:12;0.30;99.90
19000;DHT22;9633;50.980;13.850;2023-04-12T00:22:50;0.20;99.90
19000;DHT22;9633;50.980;13.850;2023-04-12T00:24:26;0.10;99.90
19000;DHT22;9633;50.980;13.850;2023-04-12T00:25:59;0.10;99.90
19000;DHT22;9633;50.980;13.850;2023-04-12T00:27:32;0.10;99.90
19000;DHT22;9633;50.980;13.850;2023-04-12T00:29:04;0.10;99.90
19000;DHT22;9633;50.980;13.850;2023-04-12T00:30:37;0.10;99.90
19000;DHT22;9633;50.980;13.850;2023-04-12T00:32:12;0.20;99.90
19000;DHT22;9633;50.980;13.850;2023-04-12T00:33:45;0.20;99.90
19000;DHT22;9633;50.980;13.850;2023-04-12T00:35:18;0.20;99.90
19000;DHT22;9633;50.980;13.850;2023-04-12T00:36:51;0.10;99.90
19000;DHT22;9633;50.980;13.850;2023-04-12T00:38:24;0.00;99.90
19000;DHT22;9633;50.980;13.850;2023-04-12T00:39:58;0.00;99.90
19000;DHT22;9633;50.980;13.850;2023-04-12T00:41:31;-0.10;99.90
19000;DHT22;9633;50.980;13.850;2023-04-12T00:43:05;-0.20;99.90
19000;DHT22;9633;50.980;13.850;2023-04-12T00:44:38;-0.20;99.90
19000;DHT22;9633;50.980;13.850;2023-04-12T00:46:12;-0.20;99.90
19000;DHT22;9633;50.980;13.850;2023-04-12T00:47:45;-0.10;99.90
19000;DHT22;9633;50.980;13.850;2023-04-12T00:49:18;0.00;99.90
19000;DHT22;9633;50.980;13.850;2023-04-12T00:50:52;-0.10;99.90
19000;DHT22;9633;50.980;13.850;2023-04-12T00:52:26;-0.10;99.90
19000;DHT22;9633;50.980;13.850;2023-04-12T00:54:06;-0.20;99.90
19000;DHT22;9633;50.980;13.850;2023-04-12T00:55:43;-0.20;99.90
19000;DHT22;9633;50.980;13.850;2023-04-12T00:57:16;-0.20;99.90
19000;DHT22;9633;50.980;13.850;2023-04-12T00:58:49;-0.10;99.90
19000;DHT22;9633;50.980;13.850;2023-04-12T01:00:23;0.00;99.90
19000;DHT22;9633;50.980;13.850;2023-04-12T01:01:56;0.10;99.90
19000;DHT22;9633;50.980;13.850;2023-04-12T01:03:31;0.10;99.90
19000;DHT22;9633;50.980;13.850;2023-04-12T01:05:05;0.10;99.90
19000;DHT22;9633;50.980;13.850;2023-04-12T01:06:48;0.20;99.90
19000;DHT22;9633;50.980;13.850;2023-04-12T01:08:34;0.20;99.90
19000;DHT22;9633;50.980;13.850;2023-04-12T01:10:23;0.30;99.90
19000;DHT22;9633;50.980;13.850;2023-04-12T01:12:24;0.40;99.90
19000;DHT22;9633;50.980;13.850;2023-04-12T01:14:06;0.20;99.90
19000;DHT22;9633;50.980;13.850;2023-04-12T01:15:48;0.10;99.90
19000;DHT22;9633;50.980;13.850;2023-04-12T01:17:28;0.10;99.90
19000;DHT22;9633;50.980;13.850;2023-04-12T01:19:11;0.20;99.90
19000;DHT22;9633;50.980;13.850;2023-04-12T01:20:52;0.20;99.90
19000;DHT22;9633;50.980;13.850;2023-04-12T01:22:37;0.20;99.90
19000;DHT22;9633;50.980;13.850;2023-04-12T01:24:23;0.20;99.90
19000;DHT22;9633;50.980;13.850;2023-04-12T01:26:11;0.20;99.90
19000;DHT22;9633;50.980;13.850;2023-04-12T01:27:49;0.20;99.90
19000;DHT22;9633;50.980;13.850;2023-04-12T01:29:24;0.20;99.90
19000;DHT22;9633;50.980;13.850;2023-04-12T01:31:00;0.30;99.90
19000;DHT22;9633;50.980;13.850;2023-04-12T01:32:35;0.30;99.90
19000;DHT22;9633;50.980;13.850;2023-04-12T01:34:09;0.40;99.90
19000;DHT22;9633;50.980;13.850;2023-04-12T01:35:43;0.40;99.90
19000;DHT22;9633;50.980;13.850;2023-04-12T01:37:17;0.40;99.90
19000;DHT22;9633;50.980;13.850;2023-04-12T01:38:52;0.40;99.90
19000;DHT22;9633;50.980;13.850;2023-04-12T01:40:27;0.40;99.90
19000;DHT22;9633;50.980;13.850;2023-04-12T01:42:00;0.40;99.90
19000;DHT22;9633;50.980;13.850;2023-04-12T01:43:39;0.40;99.90
19000;DHT22;9633;50.980;13.850;2023-04-12T01:45:13;0.40;99.90
19000;DHT22;9633;50.980;13.850;2023-04-12T01:46:47;0.40;99.90
19000;DHT22;9633;50.980;13.850;2023-04-12T01:48:21;0.30;99.90
19000;DHT22;9633;50.980;13.850;2023-04-12T01:49:58;0.30;99.90
19000;DHT22;9633;50.980;13.850;2023-04-12T01:51:40;0.20;99.90
19000;DHT22;9633;50.980;13.850;2023-04-12T01:53:19;0.20;99.90
19000;DHT22;9633;50.980;13.850;2023-04-12T01:54:56;0.10;99.90
19000;DHT22;9633;50.980;13.850;2023-04-12T01:56:34;0.10;99.90
19000;DHT22;9633;50.980;13.850;2023-04-12T01:58:11;0.20;99.90
19000;DHT22;9633;50.980;13.850;2023-04-12T01:59:47;0.20;99.90
19000;DHT22;9633;50.980;13.850;2023-04-12T02:01:23;0.30;99.90
19000;DHT22;9633;50.980;13.850;2023-04-12T02:02:57;0.40;99.90
19000;DHT22;9633;50.980;13.850;2023-04-12T02:04:31;0.40;99.90
19000;DHT22;9633;50.980;13.850;2023-04-12T02:06:06;0.40;99.90
19000;DHT22;9633;50.980;13.850;2023-04-12T02:07:40;0.40;99.90
19000;DHT22;9633;50.980;13.850;2023-04-12T02:09:13;0.30;99.90
19000;DHT22;9633;50.980;13.850;2023-04-12T02:10:46;0.20;99.90
19000;DHT22;9633;50.980;13.850;2023-04-12T02:12:21;0.10;99.90
19000;DHT22;9633;50.980;13.850;2023-04-12T02:13:54;0.10;99.90
19000;DHT22;9633;50.980;13.850;2023-04-12T02:15:29;0.10;99.90
19000;DHT22;9633;50.980;13.850;2023-04-12T02:17:03;0.20;99.90
19000;DHT22;9633;50.980;13.850;2023-04-12T02:18:37;0.30;99.90
19000;DHT22;9633;50.980;13.850;2023-04-12T02:20:13;0.40;99.90
19000;DHT22;9633;50.980;13.850;2023-04-12T02:21:48;0.40;99.90
19000;DHT22;9633;50.980;13.850;2023-04-12T02:23:22;0.40;99.90
19000;DHT22;9633;50.980;13.850;2023-04-12T02:24:55;0.40;99.90
19000;DHT22;9633;50.980;13.850;2023-04-12T02:26:28;0.40;99.90
19000;DHT22;9633;50.980;13.850;2023-04-12T02:28:01;0.40;99.90
19000;DHT22;9633;50.980;13.850;2023-04-12T02:29:35;0.30;99.90
19000;DHT22;9633;50.980;13.850;2023-04-12T02:31:09;0.20;99.90
19000;DHT22;9633;50.980;13.850;2023-04-12T02:32:44;0.20;99.90
19000;DHT22;9633;50.980;13.850;2023-04-12T02:34:25;0.20;99.90
19000;DHT22;9633;50.980;13.850;2023-04-12T02:36:10;0.30;99.90
19000;DHT22;9633;50.980;13.850;2023-04-12T02:37:45;0.40;99.90
19000;DHT22;9633;50.980;13.850;2023-04-12T02:39:19;0.30;99.90
19000;DHT22;9633;50.980;13.850;2023-04-12T02:40:55;0.30;99.90
19000;DHT22;9633;50.980;13.850;2023-04-12T02:42:27;0.30;99.90
19000;DHT22;9633;50.980;13.850;2023-04-12T02:44:01;0.30;99.90
19000;DHT22;9633;50.980;13.850;2023-04-12T02:45:33;0.30;99.90
19000;DHT22;9633;50.980;13.850;2023-04-12T02:47:08;0.20;99.90
19000;DHT22;9633;50.980;13.850;2023-04-12T02:48:41;0.20;99.90
19000;DHT22;9633;50.980;13.850;2023-04-12T02:50:15;0.20;99.90
19000;DHT22;9633;50.980;13.850;2023-04-12T02:51:55;0.10;99.90
19000;DHT22;9633;50.980;13.850;2023-04-12T02:53:34;0.10;99.90
19000;DHT22;9633;50.980;13.850;2023-04-12T02:55:16;0.10;99.90
19000;DHT22;9633;50.980;13.850;2023-04-12T02:56:49;0.10;99.90
19000;DHT22;9633;50.980;13.850;2023-04-12T02:58:40;0.10;99.90
19000;DHT22;9633;50.980;13.850;2023-04-12T03:00:16;0.10;99.90
19000;DHT22;9633;50.980;13.850;2023-04-12T03:01:52;0.10;99.90
19000;DHT22;9633;50.980;13.850;2023-04-12T03:03:33;0.00;99.90
19000;DHT22;9633;50.980;13.850;2023-04-12T03:05:21;0.00;99.90
19000;DHT22;9633;50.980;13.850;2023-04-12T03:06:55;0.10;99.90
19000;DHT22;9633;50.980;13.850;2023-04-12T03:08:45;-0.20;99.90
19000;DHT22;9633;50.980;13.850;2023-04-12T03:10:19;0.10;99.90
19000;DHT22;9633;50.980;13.850;2023-04-12T03:12:01;0.10;99.90
19000;DHT22;9633;50.980;13.850;2023-04-12T03:13:38;0.10;99.90
19000;DHT22;9633;50.980;13.850;2023-04-12T03:15:12;0.10;99.90
19000;DHT22;9633;50.980;13.850;2023-04-12T03:16:49;0.10;99.90
19000;DHT22;9633;50.980;13.850;2023-04-12T03:18:23;0.00;99.90
19000;DHT22;9633;50.980;13.850;2023-04-12T03:20:03;-0.10;99.90
19000;DHT22;9633;50.980;13.850;2023-04-12T03:21:43;-0.20;99.90
19000;DHT22;9633;50.980;13.850;2023-04-12T03:23:17;-0.20;99.90
19000;DHT22;9633;50.980;13.850;2023-04-12T03:24:57;-0.20;99.90
19000;DHT22;9633;50.980;13.850;2023-04-12T03:26:30;-0.10;99.90
19000;DHT22;9633;50.980;13.850;2023-04-12T03:28:13;0.00;99.90
19000;DHT22;9633;50.980;13.850;2023-04-12T03:29:51;0.00;99.90
19000;DHT22;9633;50.980;13.850;2023-04-12T03:31:27;0.10;99.90
19000;DHT22;9633;50.980;13.850;2023-04-12T03:33:05;0.00;99.90
19000;DHT22;9633;50.980;13.850;2023-04-12T03:34:38;0.10;99.90
19000;DHT22;9633;50.980;13.850;2023-04-12T03:36:17;0.00;99.90
19000;DHT22;9633;50.980;13.850;2023-04-12T03:37:56;-0.10;99.90
19000;DHT22;9633;50.980;13.850;2023-04-12T03:39:29;-0.10;99.90
19000;DHT22;9633;50.980;13.850;2023-04-12T03:41:03;-0.10;99.90
19000;DHT22;9633;50.980;13.850;2023-04-12T03:42:41;-0.10;99.90
19000;DHT22;9633;50.980;13.850;2023-04-12T03:44:16;-0.20;99.90
19000;DHT22;9633;50.980;13.850;2023-04-12T03:45:50;-0.20;99.90
19000;DHT22;9633;50.980;13.850;2023-04-12T03:47:22;-0.20;99.90
19000;DHT22;9633;50.980;13.850;2023-04-12T03:48:55;-0.40;99.90
19000;DHT22;9633;50.980;13.850;2023-04-12T03:50:29;-0.40;99.90
19000;DHT22;9633;50.980;13.850;2023-04-12T03:52:14;-0.30;99.90
19000;DHT22;9633;50.980;13.850;2023-04-12T03:53:49;-0.30;99.90
19000;DHT22;9633;50.980;13.850;2023-04-12T03:55:22;-0.30;99.90
19000;DHT22;9633;50.980;13.850;2023-04-12T03:56:56;-0.30;99.90
19000;DHT22;9633;50.980;13.850;2023-04-12T03:58:35;-0.30;99.90
19000;DHT22;9633;50.980;13.850;2023-04-12T04:00:11;-0.40;99.90
19000;DHT22;9633;50.980;13.850;2023-04-12T04:02:04;-0.50;99.90
19000;DHT22;9633;50.980;13.850;2023-04-12T04:03:41;-0.50;99.90
19000;DHT22;9633;50.980;13.850;2023-04-12T04:05:23;-0.50;99.90
19000;DHT22;9633;50.980;13.850;2023-04-12T04:06:56;-0.50;99.90
19000;DHT22;9633;50.980;13.850;2023-04-12T04:08:33;-0.40;99.90
19000;DHT22;9633;50.980;13.850;2023-04-12T04:10:07;-0.40;99.90
19000;DHT22;9633;50.980;13.850;2023-04-12T04:11:43;-0.40;99.90
19000;DHT22;9633;50.980;13.850;2023-04-12T04:13:17;-0.30;99.90
19000;DHT22;9633;50.980;13.850;2023-04-12T04:14:51;-0.30;99.90
19000;DHT22;9633;50.980;13.850;2023-04-12T04:16:35;-0.30;99.90
19000;DHT22;9633;50.980;13.850;2023-04-12T04:18:10;-0.20;99.90
19000;DHT22;9633;50.980;13.850;2023-04-12T04:19:43;-0.20;99.90
19000;DHT22;9633;50.980;13.850;2023-04-12T04:21:17;-0.30;99.90
19000;DHT22;9633;50.980;13.850;2023-04-12T04:22:50;-0.20;99.90
19000;DHT22;9633;50.980;13.850;2023-04-12T04:24:28;-0.20;99.90
19000;DHT22;9633;50.980;13.850;2023-04-12T04:26:05;-0.20;99.90
19000;DHT22;9633;50.980;13.850;2023-04-12T04:27:44;-0.10;99.90
19000;DHT22;9633;50.980;13.850;2023-04-12T04:29:17;-0.10;99.90
19000;DHT22;9633;50.980;13.850;2023-04-12T04:30:51;0.00;99.90
19000;DHT22;9633;50.980;13.850;2023-04-12T04:32:27;-0.10;99.90
19000;DHT22;9633;50.980;13.850;2023-04-12T04:34:02;0.00;99.90
19000;DHT22;9633;50.980;13.850;2023-04-12T04:35:38;0.10;99.90
19000;DHT22;9633;50.980;13.850;2023-04-12T04:37:30;0.00;99.90
19000;DHT22;9633;50.980;13.850;2023-04-12T04:39:06;0.00;99.90
19000;DHT22;9633;50.980;13.850;2023-04-12T04:40:45;0.10;99.90
19000;DHT22;9633;50.980;13.850;2023-04-12T04:42:22;0.10;99.90
19000;DHT22;9633;50.980;13.850;2023-04-12T04:44:01;0.10;99.90
19000;DHT22;9633;50.980;13.850;2023-04-12T04:45:36;0.30;99.90
19000;DHT22;9633;50.980;13.850;2023-04-12T04:47:12;0.30;99.90
19000;DHT22;9633;50.980;13.850;2023-04-12T04:48:45;0.40;99.90
19000;DHT22;9633;50.980;13.850;2023-04-12T04:50:19;0.50;99.90
19000;DHT22;9633;50.980;13.850;2023-04-12T04:51:55;0.60;99.90
19000;DHT22;9633;50.980;13.850;2023-04-12T04:53:30;0.60;99.90
19000;DHT22;9633;50.980;13.850;2023-04-12T04:55:05;0.60;99.90
19000;DHT22;9633;50.980;13.850;2023-04-12T04:56:44;0.60;99.90
19000;DHT22;9633;50.980;13.850;2023-04-12T04:58:20;0.80;99.90
19000;DHT22;9633;50.980;13.850;2023-04-12T04:59:53;1.50;99.90
19000;DHT22;9633;50.980;13.850;2023-04-12T05:01:26;2.50;99.90
19000;DHT22;9633;50.980;13.850;2023-04-12T05:03:03;3.80;99.90
19000;DHT22;9633;50.980;13.850;2023-04-12T05:04:36;5.00;99.90
19000;DHT22;9633;50.980;13.850;2023-04-12T05:06:10;5.90;99.90
19000;DHT22;9633;50.980;13.850;2023-04-12T05:07:44;6.30;99.90
19000;DHT22;9633;50.980;13.850;2023-04-12T05:09:16;7.20;99.90
19000;DHT22;9633;50.980;13.850;2023-04-12T05:10:55;7.70;63.60
19000;DHT22;9633;50.980;13.850;2023-04-12T05:12:34;8.30;61.40
19000;DHT22;9633;50.980;13.850;2023-04-12T05:14:07;8.70;40.60
19000;DHT22;9633;50.980;13.850;2023-04-12T05:15:43;9.00;37.30
19000;DHT22;9633;50.980;13.850;2023-04-12T05:17:16;9.00;29.90
19000;DHT22;9633;50.980;13.850;2023-04-12T05:18:49;8.40;27.90
19000;DHT22;9633;50.980;13.850;2023-04-12T05:20:23;7.20;36.40
19000;DHT22;9633;50.980;13.850;2023-04-12T05:21:57;6.40;59.80
19000;DHT22;9633;50.980;13.850;2023-04-12T05:23:33;6.60;85.90
19000;DHT22;9633;50.980;13.850;2023-04-12T05:25:07;6.50;65.90
19000;DHT22;9633;50.980;13.850;2023-04-12T05:26:48;5.90;89.60
19000;DHT22;9633;50.980;13.850;2023-04-12T05:28:23;6.00;99.90
19000;DHT22;9633;50.980;13.850;2023-04-12T05:29:56;6.50;99.90
19000;DHT22;9633;50.980;13.850;2023-04-12T05:31:30;7.20;82.20
19000;DHT22;9633;50.980;13.850;2023-04-12T05:33:07;7.60;55.60
19000;DHT22;9633;50.980;13.850;2023-04-12T05:34:46;7.40;55.10
19000;DHT22;9633;50.980;13.850;2023-04-12T05:36:20;6.80;63.50
19000;DHT22;9633;50.980;13.850;2023-04-12T05:37:53;6.10;87.50
19000;DHT22;9633;50.980;13.850;2023-04-12T05:39:29;6.50;99.90
19000;DHT22;9633;50.980;13.850;2023-04-12T05:41:02;7.30;78.00
19000;DHT22;9633;50.980;13.850;2023-04-12T05:42:37;8.10;57.40
19000;DHT22;9633;50.980;13.850;2023-04-12T05:44:12;8.60;41.90
19000;DHT22;9633;50.980;13.850;2023-04-12T05:45:45;9.20;36.70
19000;DHT22;9633;50.980;13.850;2023-04-12T05:47:18;9.80;34.40
19000;DHT22;9633;50.980;13.850;2023-04-12T05:48:52;9.90;33.60
19000;DHT22;9633;50.980;13.850;2023-04-12T05:50:25;10.30;32.50
19000;DHT22;9633;50.980;13.850;2023-04-12T05:51:59;10.10;34.50
19000;DHT22;9633;50.980;13.850;2023-04-12T05:53:32;10.00;42.40
19000;DHT22;9633;50.980;13.850;2023-04-12T05:55:08;10.30;41.90
19000;DHT22;9633;50.980;13.850;2023-04-12T05:56:44;10.60;40.20
19000;DHT22;9633;50.980;13.850;2023-04-12T05:58:17;10.60;40.80
19000;DHT22;9633;50.980;13.850;2023-04-12T05:59:54;10.70;43.50
19000;DHT22;9633;50.980;13.850;2023-04-12T06:01:28;11.50;43.30
19000;DHT22;9633;50.980;13.850;2023-04-12T06:03:04;12.00;46.30
19000;DHT22;9633;50.980;13.850;2023-04-12T06:04:37;12.30;48.10
19000;DHT22;9633;50.980;13.850;2023-04-12T06:06:22;12.40;51.50
19000;DHT22;9633;50.980;13.850;2023-04-12T06:07:55;11.80;46.60
19000;DHT22;9633;50.980;13.850;2023-04-12T06:09:27;11.60;47.50
19000;DHT22;9633;50.980;13.850;2023-04-12T06:11:00;11.70;49.50
19000;DHT22;9633;50.980;13.850;2023-04-12T06:12:33;12.20;50.20
19000;DHT22;9633;50.980;13.850;2023-04-12T06:14:07;12.40;52.90
19000;DHT22;9633;50.980;13.850;2023-04-12T06:15:44;12.70;56.50
19000;DHT22;9633;50.980;13.850;2023-04-12T06:17:17;12.60;59.40
19000;DHT22;9633;50.980;13.850;2023-04-12T06:18:50;12.80;67.10
19000;DHT22;9633;50.980;13.850;2023-04-12T06:20:23;13.00;78.80
19000;DHT22;9633;50.980;13.850;2023-04-12T06:21:57;13.30;80.60
19000;DHT22;9633;50.980;13.850;2023-04-12T06:23:30;13.70;85.20
19000;DHT22;9633;50.980;13.850;2023-04-12T06:25:04;13.60;82.10
19000;DHT22;9633;50.980;13.850;2023-04-12T06:26:38;13.50;84.50
19000;DHT22;9633;50.980;13.850;2023-04-12T06:28:14;13.50;80.10
19000;DHT22;9633;50.980;13.850;2023-04-12T06:29:50;13.40;79.90
19000;DHT22;9633;50.980;13.850;2023-04-12T06:31:26;13.40;83.50
19000;DHT22;9633;50.980;13.850;2023-04-12T06:33:00;13.00;82.80
19000;DHT22;9633;50.980;13.850;2023-04-12T06:34:33;12.90;79.60
19000;DHT22;9633;50.980;13.850;2023-04-12T06:36:11;13.10;82.50
19000;DHT22;9633;50.980;13.850;2023-04-12T06:37:46;13.30;83.40
19000;DHT22;9633;50.980;13.850;2023-04-12T06:39:19;13.90;84.30
19000;DHT22;9633;50.980;13.850;2023-04-12T06:40:53;13.90;84.90
19000;DHT22;9633;50.980;13.850;2023-04-12T06:42:26;13.50;87.50
19000;DHT22;9633;50.980;13.850;2023-04-12T06:43:59;13.60;89.60
19000;DHT22;9633;50.980;13.850;2023-04-12T06:45:32;13.60;89.50
19000;DHT22;9633;50.980;13.850;2023-04-12T06:47:07;13.60;89.40
19000;DHT22;9633;50.980;13.850;2023-04-12T06:48:41;13.80;89.80
19000;DHT22;9633;50.980;13.850;2023-04-12T06:50:14;14.10;88.60
19000;DHT22;9633;50.980;13.850;2023-04-12T06:51:49;14.30;90.10
19000;DHT22;9633;50.980;13.850;2023-04-12T06:53:22;14.00;90.20
19000;DHT22;9633;50.980;13.850;2023-04-12T06:54:55;13.40;90.50
19000;DHT22;9633;50.980;13.850;2023-04-12T06:56:29;13.10;91.00
19000;DHT22;9633;50.980;13.850;2023-04-12T06:58:02;12.70;91.30
19000;DHT22;9633;50.980;13.850;2023-04-12T06:59:35;12.70;90.80
19000;DHT22;9633;50.980;13.850;2023-04-12T07:01:08;13.10;91.90
19000;DHT22;9633;50.980;13.850;2023-04-12T07:02:43;13.80;91.50
19000;DHT22;9633;50.980;13.850;2023-04-12T07:04:16;14.10;91.60
19000;DHT22;9633;50.980;13.850;2023-04-12T07:05:50;14.60;93.00
19000;DHT22;9633;50.980;13.850;2023-04-12T07:07:27;15.10;92.70
19000;DHT22;9633;50.980;13.850;2023-04-12T07:09:00;15.80;93.60
19000;DHT22;9633;50.980;13.850;2023-04-12T07:10:33;16.70;95.20
19000;DHT22;9633;50.980;13.850;2023-04-12T07:12:06;16.90;97.80
19000;DHT22;9633;50.980;13.850;2023-04-12T07:13:40;16.30;99.90
19000;DHT22;9633;50.980;13.850;2023-04-12T07:15:13;15.60;99.90
19000;DHT22;9633;50.980;13.850;2023-04-12T07:16:46;14.80;99.90
19000;DHT22;9633;50.980;13.850;2023-04-12T07:18:21;14.30;99.90
19000;DHT22;9633;50.980;13.850;2023-04-12T07:19:54;14.10;99.90
19000;DHT22;9633;50.980;13.850;2023-04-12T07:21:27;14.20;99.90
19000;DHT22;9633;50.980;13.850;2023-04-12T07:23:00;14.10;99.30
19000;DHT22;9633;50.980;13.850;2023-04-12T07:24:34;14.70;98.60
19000;DHT22;9633;50.980;13.850;2023-04-12T07:26:07;15.00;99.90
19000;DHT22;9633;50.980;13.850;2023-04-12T07:27:40;15.20;99.90
19000;DHT22;9633;50.980;13.850;2023-04-12T07:29:13;15.50;99.90
19000;DHT22;9633;50.980;13.850;2023-04-12T07:30:47;15.70;99.80
19000;DHT22;9633;50.980;13.850;2023-04-12T07:32:21;15.50;99.10
19000;DHT22;9633;50.980;13.850;2023-04-12T07:33:56;15.30;99.90
19000;DHT22;9633;50.980;13.850;2023-04-12T07:35:29;15.20;99.50
19000;DHT22;9633;50.980;13.850;2023-04-12T07:37:02;15.10;99.30
19000;DHT22;9633;50.980;13.850;2023-04-12T07:38:35;14.80;99.90
19000;DHT22;9633;50.980;13.850;2023-04-12T07:40:09;14.70;99.90
19000;DHT22;9633;50.980;13.850;2023-04-12T07:41:42;14.60;99.90
19000;DHT22;9633;50.980;13.850;2023-04-12T07:43:17;14.40;99.90
19000;DHT22;9633;50.980;13.850;2023-04-12T07:44:50;14.20;99.90
19000;DHT22;9633;50.980;13.850;2023-04-12T07:46:23;14.30;99.90
19000;DHT22;9633;50.980;13.850;2023-04-12T07:47:56;14.40;99.90
19000;DHT22;9633;50.980;13.850;2023-04-12T07:49:31;14.50;99.90
19000;DHT22;9633;50.980;13.850;2023-04-12T07:51:04;14.90;99.90
19000;DHT22;9633;50.980;13.850;2023-04-12T07:52:37;15.10;99.90
19000;DHT22;9633;50.980;13.850;2023-04-12T07:54:11;15.30;99.90
19000;DHT22;9633;50.980;13.850;2023-04-12T07:55:44;15.90;99.90
19000;DHT22;9633;50.980;13.850;2023-04-12T07:57:18;16.20;99.90
19000;DHT22;9633;50.980;13.850;2023-04-12T07:58:51;16.10;99.90
19000;DHT22;9633;50.980;13.850;2023-04-12T08:00:24;16.10;99.90
19000;DHT22;9633;50.980;13.850;2023-04-12T08:01:58;16.20;99.90
19000;DHT22;9633;50.980;13.850;2023-04-12T08:03:32;16.40;99.90
19000;DHT22;9633;50.980;13.850;2023-04-12T08:05:08;16.40;99.90
19000;DHT22;9633;50.980;13.850;2023-04-12T08:06:41;16.00;99.90
19000;DHT22;9633;50.980;13.850;2023-04-12T08:08:15;15.60;99.90
19000;DHT22;9633;50.980;13.850;2023-04-12T08:09:48;15.40;99.90
19000;DHT22;9633;50.980;13.850;2023-04-12T08:11:21;15.10;99.90
19000;DHT22;9633;50.980;13.850;2023-04-12T08:12:54;15.00;99.90
19000;DHT22;9633;50.980;13.850;2023-04-12T08:14:28;15.30;99.90
19000;DHT22;9633;50.980;13.850;2023-04-12T08:16:01;15.50;99.90
19000;DHT22;9633;50.980;13.850;2023-04-12T08:17:34;15.40;99.90
19000;DHT22;9633;50.980;13.850;2023-04-12T08:19:07;15.20;99.90
19000;DHT22;9633;50.980;13.850;2023-04-12T08:20:41;15.00;99.90
19000;DHT22;9633;50.980;13.850;2023-04-12T08:22:15;14.90;99.90
19000;DHT22;9633;50.980;13.850;2023-04-12T08:23:49;14.80;99.90
19000;DHT22;9633;50.980;13.850;2023-04-12T08:25:22;15.00;99.90
19000;DHT22;9633;50.980;13.850;2023-04-12T08:26:55;15.10;99.90
19000;DHT22;9633;50.980;13.850;2023-04-12T08:28:28;15.20;99.90
19000;DHT22;9633;50.980;13.850;2023-04-12T08:30:02;15.40;99.90
19000;DHT22;9633;50.980;13.850;2023-04-12T08:31:35;15.40;99.90
19000;DHT22;9633;50.980;13.850;2023-04-12T08:33:08;15.40;99.90
19000;DHT22;9633;50.980;13.850;2023-04-12T08:34:41;15.90;99.90
19000;DHT22;9633;50.980;13.850;2023-04-12T08:36:18;16.00;99.90
19000;DHT22;9633;50.980;13.850;2023-04-12T08:37:51;15.90;99.90
19000;DHT22;9633;50.980;13.850;2023-04-12T08:39:24;15.70;99.90
19000;DHT22;9633;50.980;13.850;2023-04-12T08:40:58;15.50;99.90
19000;DHT22;9633;50.980;13.850;2023-04-12T08:42:34;15.60;99.90
19000;DHT22;9633;50.980;13.850;2023-04-12T08:44:10;15.50;99.90
19000;DHT22;9633;50.980;13.850;2023-04-12T08:45:43;15.50;99.90
19000;DHT22;9633;50.980;13.850;2023-04-12T08:47:16;15.30;99.90
19000;DHT22;9633;50.980;13.850;2023-04-12T08:48:50;15.70;99.90
19000;DHT22;9633;50.980;13.850;2023-04-12T08:50:26;16.00;99.90
19000;DHT22;9633;50.980;13.850;2023-04-12T08:52:03;16.10;99.90
19000;DHT22;9633;50.980;13.850;2023-04-12T08:53:37;16.00;99.90
19000;DHT22;9633;50.980;13.850;2023-04-12T08:55:11;15.80;99.90
19000;DHT22;9633;50.980;13.850;2023-04-12T08:56:45;15.40;99.90
19000;DHT22;9633;50.980;13.850;2023-04-12T08:58:18;15.50;99.90
19000;DHT22;9633;50.980;13.850;2023-04-12T08:59:53;15.50;99.90
19000;DHT22;9633;50.980;13.850;2023-04-12T09:01:27;15.90;99.90
19000;DHT22;9633;50.980;13.850;2023-04-12T09:03:00;16.40;99.90
19000;DHT22;9633;50.980;13.850;2023-04-12T09:04:34;16.50;99.90
19000;DHT22;9633;50.980;13.850;2023-04-12T09:06:19;17.00;99.90
19000;DHT22;9633;50.980;13.850;2023-04-12T09:07:54;17.60;99.90
19000;DHT22;9633;50.980;13.850;2023-04-12T09:09:48;18.00;99.90
19000;DHT22;9633;50.980;13.850;2023-04-12T09:11:23;18.00;99.90
19000;DHT22;9633;50.980;13.850;2023-04-12T09:12:57;17.40;99.90
19000;DHT22;9633;50.980;13.850;2023-04-12T09:14:30;17.00;99.90
19000;DHT22;9633;50.980;13.850;2023-04-12T09:16:03;17.80;99.90
19000;DHT22;9633;50.980;13.850;2023-04-12T09:17:37;17.40;99.90
19000;DHT22;9633;50.980;13.850;2023-04-12T09:19:11;16.50;99.90
19000;DHT22;9633;50.980;13.850;2023-04-12T09:20:45;16.40;99.90
19000;DHT22;9633;50.980;13.850;2023-04-12T09:22:18;17.10;99.90
19000;DHT22;9633;50.980;13.850;2023-04-12T09:24:03;17.10;99.90
19000;DHT22;9633;50.980;13.850;2023-04-12T09:25:43;17.40;99.90
19000;DHT22;9633;50.980;13.850;2023-04-12T09:27:19;17.50;99.90
19000;DHT22;9633;50.980;13.850;2023-04-12T09:28:52;17.10;99.90
19000;DHT22;9633;50.980;13.850;2023-04-12T09:30:25;17.60;99.90
19000;DHT22;9633;50.980;13.850;2023-04-12T09:32:01;17.30;99.90
19000;DHT22;9633;50.980;13.850;2023-04-12T09:33:37;17.80;99.90
19000;DHT22;9633;50.980;13.850;2023-04-12T09:35:10;18.10;99.90
19000;DHT22;9633;50.980;13.850;2023-04-12T09:36:43;18.20;99.90
19000;DHT22;9633;50.980;13.850;2023-04-12T09:38:16;18.20;99.90
19000;DHT22;9633;50.980;13.850;2023-04-12T09:39:59;17.40;99.90
19000;DHT22;9633;50.980;13.850;2023-04-12T09:41:34;17.40;99.90
19000;DHT22;9633;50.980;13.850;2023-04-12T09:43:07;17.70;99.90
19000;DHT22;9633;50.980;13.850;2023-04-12T09:44:41;17.30;99.90
19000;DHT22;9633;50.980;13.850;2023-04-12T09:46:14;17.00;99.90
19000;DHT22;9633;50.980;13.850;2023-04-12T09:47:47;16.80;99.90
19000;DHT22;9633;50.980;13.850;2023-04-12T09:49:35;17.00;99.90
19000;DHT22;9633;50.980;13.850;2023-04-12T09:51:09;17.20;99.90
19000;DHT22;9633;50.980;13.850;2023-04-12T09:52:43;17.10;99.90
19000;DHT22;9633;50.980;13.850;2023-04-12T09:54:17;16.70;99.90
19000;DHT22;9633;50.980;13.850;2023-04-12T09:55:52;16.90;99.90
19000;DHT22;9633;50.980;13.850;2023-04-12T09:57:26;17.20;99.90
19000;DHT22;9633;50.980;13.850;2023-04-12T09:59:01;17.20;99.90
19000;DHT22;9633;50.980;13.850;2023-04-12T10:00:35;17.50;99.90
19000;DHT22;9633;50.980;13.850;2023-04-12T10:02:13;17.10;99.90
19000;DHT22;9633;50.980;13.850;2023-04-12T10:03:48;17.10;99.90
19000;DHT22;9633;50.980;13.850;2023-04-12T10:05:23;17.40;99.90
19000;DHT22;9633;50.980;13.850;2023-04-12T10:06:59;17.40;99.90